Thunder radar more information blitzortung!


Radar de pluja more information rain snow radar


Visita la nostra xarxa de llocs de meteo:

Template documentation
and downloads

And another site



No particular awareness of the weather is required.    There are no Weather-warnings

Pagina Historial Weather Underground text

Diari Resum January 9, 2018 Unitats:  Mètric    Imperial   Tant
« Previous Dia
SegĂźent Dia »
Diari Setmana Mensual Anual Personalitzada
  Maxima: Minima: Media:
Temperatura: -17.8 °C -16.3 °C -12.3 °C
Punt de rosada: -17.8 °C -19.1 °C -17.2 °C
Humitat: Humidity % 48 % 55 %
Wind Speed: 0 km/h 0 km/h 10.5 km/h
RĂ fegues de vent: 0 km/h - -
Vent:- - SW
Pression baro: 0 hPa 34256.2 hPa -
Precipitacions: 0 mm    
Historical Graphs
 
 
Dades de taula per January 9, 2018
Temps Temperatura Punt de rosada Pression baro Vent Wind Speed RĂ fegues de vent Humitat Rainfall Rate (Hourly)
-17.8 °C -17.8 °C 0 hPa Calm     Humidity % 0 mm
00:03 -15.1 °C -17.3 °C 34256.2 hPa West 15 km/h 15 km/h 75 % 0 mm
00:04 -15.1 °C -17.3 °C 34256.2 hPa West 9 km/h 9 km/h 75 % 0 mm
00:05 -15 °C -17.3 °C 34256.2 hPa WSW 7.6 km/h 7.6 km/h 75 % 0 mm
00:25 -15.9 °C -18.3 °C 34327.3 hPa WSW 7.7 km/h 7.7 km/h 74 % 0 mm
00:35 -16.1 °C -18.4 °C 34293.4 hPa WSW 5.1 km/h 7.7 km/h 74 % 0 mm
00:45 -16.1 °C -18.4 °C 34293.4 hPa WSW 7.7 km/h 7.7 km/h 74 % 0 mm
00:55 -16 °C -18.3 °C 34327.3 hPa WSW 2.6 km/h 7.7 km/h 74 % 0 mm
01:15 -16.3 °C -18.7 °C 34327.3 hPa WSW 5.1 km/h 7.7 km/h 74 % 0 mm
01:25 -16.3 °C -18.6 °C 34361.1 hPa WSW 2.6 km/h 5.1 km/h 74 % 0 mm
01:45 -16.2 °C -18.4 °C 34361.1 hPa WSW 2.6 km/h 7.7 km/h 75 % 0 mm
01:55 -16.3 °C -18.5 °C 34361.1 hPa Calm   2.6 km/h 75 % 0 mm
02:15 -16.2 °C -18.4 °C 34395 hPa WSW 5.1 km/h 7.7 km/h 75 % 0 mm
02:25 -16.2 °C -18.4 °C 34395 hPa Calm   5.1 km/h 75 % 0 mm
02:45 -16.2 °C -18.4 °C 34395 hPa Calm   5.1 km/h 75 % 0 mm
10:48 -14.1 °C -17.3 °C 34462.7 hPa ENE 6 km/h 6 km/h 66 % 0 mm
10:49 -14.1 °C -17.3 °C 34462.7 hPa ENE 6 km/h 6 km/h 66 % 0 mm
10:50 -14 °C -17.3 °C 34462.7 hPa ENE 3.1 km/h   66 % 0 mm
10:51 -14 °C -17.3 °C 34462.7 hPa NNW 3.1 km/h   66 % 0 mm
10:52 -13.9 °C -17.1 °C 34462.7 hPa NW 6 km/h 6 km/h 67 % 0 mm
10:53 -13.9 °C -17.1 °C 34462.7 hPa NNW 6 km/h 6 km/h 67 % 0 mm
10:54 -13.8 °C -17 °C 34462.7 hPa NNW 3.1 km/h 3.1 km/h 67 % 0 mm
10:55 -13.8 °C -16.9 °C 34462.7 hPa West 5.6 km/h   67 % 0 mm
10:56 -13.8 °C -16.9 °C 34462.7 hPa West 6 km/h 6 km/h 67 % 0 mm
10:57 -13.8 °C -16.9 °C 34462.7 hPa West 6 km/h 6 km/h 67 % 0 mm
10:58 -13.7 °C -16.9 °C 34462.7 hPa SW 6 km/h 6 km/h 67 % 0 mm
10:59 -13.7 °C -16.8 °C 34462.7 hPa SW 6 km/h 6 km/h 67 % 0 mm
11:00 -13.7 °C -16.8 °C 34462.7 hPa SW 6 km/h 6 km/h 67 % 0 mm
11:01 -13.6 °C -16.8 °C 34462.7 hPa SW 6 km/h   66 % 0 mm
11:02 -13.5 °C -16.8 °C 34462.7 hPa SW 6 km/h 6 km/h 66 % 0 mm
11:03 -13.4 °C -16.8 °C 34462.7 hPa SW 6 km/h 6 km/h 66 % 0 mm
11:04 -13.4 °C -16.8 °C 34462.7 hPa WNW 6 km/h   66 % 0 mm
11:05 -13.4 °C -16.8 °C 34462.7 hPa NNW 4.2 km/h 4.2 km/h 66 % 0 mm
11:06 -13.4 °C -16.9 °C 34462.7 hPa North 3.1 km/h 3.7 km/h 65 % 0 mm
11:07 -13.4 °C -16.9 °C 34462.7 hPa NNE 3.7 km/h 3.7 km/h 65 % 0 mm
11:08 -13.4 °C -16.9 °C 34462.7 hPa NNE 4.2 km/h 4.2 km/h 65 % 0 mm
11:09 -13.4 °C -16.9 °C 34462.7 hPa NNE 6 km/h 6 km/h 65 % 0 mm
11:10 -13.4 °C -16.8 °C 34462.7 hPa NNE 3.1 km/h 3.1 km/h 65 % 0 mm
11:11 -13.3 °C -16.8 °C 34462.7 hPa NNE 3.1 km/h   65 % 0 mm
11:12 -13.3 °C -16.7 °C 34462.7 hPa East 6 km/h 6 km/h 65 % 0 mm
11:13 -13.2 °C -16.7 °C 34462.7 hPa East 6 km/h   65 % 0 mm
11:14 -13.2 °C -16.7 °C 34462.7 hPa East 6 km/h   65 % 0 mm
11:16 -13.1 °C -16.6 °C 34462.7 hPa ESE 3.1 km/h   65 % 0 mm
11:17 -13.1 °C -16.5 °C 34462.7 hPa ESE 3.1 km/h 3.1 km/h 65 % 0 mm
11:18 -13 °C -16.4 °C 34462.7 hPa NE 4.2 km/h 4.2 km/h 65 % 0 mm
11:20 -13.1 °C -16.7 °C 34462.7 hPa ENE 6.8 km/h 6.8 km/h 64 % 0 mm
11:21 -13.2 °C -16.8 °C 34462.7 hPa NE 6 km/h 6.8 km/h 64 % 0 mm
11:22 -13.3 °C -16.8 °C 34462.7 hPa NE 6 km/h 6 km/h 64 % 0 mm
11:23 -13.3 °C -16.8 °C 34462.7 hPa ENE 6 km/h 6 km/h 64 % 0 mm
11:24 -13.3 °C -16.8 °C 34462.7 hPa NE 6 km/h 6 km/h 64 % 0 mm
11:25 -13.3 °C -16.8 °C 34462.7 hPa ENE 2.6 km/h 7.7 km/h 64 % 0 mm
11:27 -13.4 °C -17.1 °C 34462.7 hPa ENE 9 km/h 9 km/h 63 % 0 mm
11:28 -13.4 °C -17.1 °C 34462.7 hPa ENE 6 km/h 6 km/h 63 % 0 mm
11:29 -13.4 °C -16.9 °C 34462.7 hPa NE 8.5 km/h 8.5 km/h 64 % 0 mm
11:30 -13.4 °C -17.1 °C 34462.7 hPa NNE 9 km/h 9 km/h 63 % 0 mm
11:31 -13.4 °C -16.9 °C 34462.7 hPa NE 6 km/h 6 km/h 64 % 0 mm
11:32 -13.3 °C -16.9 °C 34462.7 hPa NNE 6.8 km/h 6.8 km/h 64 % 0 mm
11:33 -13.3 °C -16.9 °C 34462.7 hPa NNE 7.6 km/h 7.6 km/h 64 % 0 mm
11:36 -13.3 °C -17 °C 34462.7 hPa NE 9 km/h 9 km/h 63 % 0 mm
11:37 -13.3 °C -16.9 °C 34462.7 hPa NE 6 km/h 6 km/h 63 % 0 mm
11:38 -13.3 °C -16.9 °C 34462.7 hPa NE 6 km/h 6 km/h 63 % 0 mm
11:39 -13.2 °C -16.7 °C 34462.7 hPa NE 3.1 km/h   64 % 0 mm
11:44 -13.1 °C -16.7 °C 34462.7 hPa NNW 6 km/h 6 km/h 64 % 0 mm
11:45 -13.1 °C -16.7 °C 34462.7 hPa NE 6 km/h 6 km/h 64 % 0 mm
11:46 -13.1 °C -16.7 °C 34462.7 hPa NE 6 km/h 6 km/h 64 % 0 mm
11:50 -13.1 °C -16.7 °C 34462.7 hPa NNE 9 km/h 9 km/h 64 % 0 mm
11:53 -12.9 °C -16.5 °C 34462.7 hPa NE 4.2 km/h 5.1 km/h 64 % 0 mm
11:54 -12.9 °C -16.5 °C 34462.7 hPa NE 9 km/h 9 km/h 64 % 0 mm
11:55 -12.9 °C -16.5 °C 34462.7 hPa NE 6 km/h 6 km/h 64 % 0 mm
11:56 -12.9 °C -16.6 °C 34462.7 hPa ENE 6.3 km/h 6.3 km/h 63 % 0 mm
11:59 -12.9 °C -16.6 °C 34462.7 hPa ENE 5.1 km/h 5.1 km/h 63 % 0 mm
12:00 -12.9 °C -16.6 °C 34462.7 hPa ENE 8 km/h 8 km/h 63 % 0 mm
12:01 -12.9 °C -16.6 °C 34462.7 hPa NNE 9 km/h 9 km/h 63 % 0 mm
12:02 -12.9 °C -16.8 °C 34462.7 hPa NE 9 km/h 9 km/h 62 % 0 mm
12:03 -12.9 °C -16.8 °C 34462.7 hPa NE 9 km/h 9 km/h 62 % 0 mm
12:05 -12.8 °C -16.6 °C 34462.7 hPa ENE 8 km/h 8 km/h 63 % 0 mm
12:06 -12.8 °C -16.6 °C 34462.7 hPa NNE 9 km/h 9 km/h 63 % 0 mm
12:07 -12.8 °C -16.6 °C 34462.7 hPa NNE 9 km/h 9 km/h 63 % 0 mm
12:08 -12.9 °C -16.8 °C 34462.7 hPa NNE 9 km/h 9 km/h 62 % 0 mm
12:10 -12.9 °C -16.7 °C 34462.7 hPa ENE 9 km/h 9 km/h 62 % 0 mm
12:13 -12.7 °C -16.6 °C 34462.7 hPa ESE 9 km/h 9 km/h 62 % 0 mm
12:14 -12.8 °C -16.7 °C 34462.7 hPa ENE 9.3 km/h 9.3 km/h 61 % 0 mm
12:15 -12.7 °C -16.6 °C 34462.7 hPa NE 5.1 km/h 10.3 km/h 62 % 0 mm
12:16 -12.7 °C -16.6 °C 34462.7 hPa East 9 km/h 9 km/h 62 % 0 mm
12:17 -12.7 °C -16.5 °C 34462.7 hPa East 3.7 km/h 3.7 km/h 62 % 0 mm
12:18 -12.7 °C -16.6 °C 34462.7 hPa ENE 11.1 km/h 11.1 km/h 61 % 0 mm
12:20 -12.7 °C -16.6 °C 34462.7 hPa NE 9 km/h 9 km/h 62 % 0 mm
12:21 -12.7 °C -16.7 °C 34462.7 hPa ESE 9 km/h 9 km/h 61 % 0 mm
12:22 -12.7 °C -16.7 °C 34462.7 hPa ENE 6 km/h 6 km/h 61 % 0 mm
12:23 -12.7 °C -16.6 °C 34462.7 hPa ENE 6 km/h 6 km/h 61 % 0 mm
12:24 -12.6 °C -16.4 °C 34462.7 hPa ESE 3.1 km/h 3.7 km/h 62 % 0 mm
12:25 -12.6 °C -16.4 °C 34462.7 hPa WSW 8 km/h 8 km/h 62 % 0 mm
12:26 -12.4 °C -16.3 °C 34462.7 hPa WNW 9 km/h 9 km/h 62 % 0 mm
12:27 -12.4 °C -16.2 °C 34462.7 hPa NNW 6 km/h 6 km/h 63 % 0 mm
12:28 -12.4 °C -16.1 °C 34462.7 hPa West 6.8 km/h 6.8 km/h 63 % 0 mm
12:29 -12.3 °C -16.2 °C 34462.7 hPa ENE 6 km/h 6 km/h 62 % 0 mm
12:30 -12.3 °C -16.2 °C 34462.7 hPa NNW 6.8 km/h 6.8 km/h 62 % 0 mm
12:33 -12.1 °C -16.1 °C 34462.7 hPa WSW 14 km/h 14 km/h 61 % 0 mm
12:35 -12.1 °C -16.1 °C 34462.7 hPa South 15 km/h 15 km/h 61 % 0 mm
12:36 -12 °C -16 °C 34462.7 hPa South 9 km/h 9 km/h 61 % 0 mm
12:37 -12 °C -16 °C 34462.7 hPa WNW 7.6 km/h 7.6 km/h 61 % 0 mm
12:38 -11.9 °C -15.9 °C 34462.7 hPa WSW 10.3 km/h 10.3 km/h 61 % 0 mm
12:40 -11.8 °C -16 °C 34462.7 hPa WNW 3.7 km/h 3.7 km/h 60 % 0 mm
12:41 -11.8 °C -16 °C 34462.7 hPa NW 6 km/h 6 km/h 60 % 0 mm
12:43 -11.9 °C -15.9 °C 34462.7 hPa WNW 11.9 km/h 11.9 km/h 61 % 0 mm
12:44 -11.9 °C -16 °C 34462.7 hPa WNW 11.9 km/h 11.9 km/h 60 % 0 mm
12:45 -11.8 °C -15.9 °C 34462.7 hPa SSW 6 km/h 6 km/h 60 % 0 mm
12:46 -11.8 °C -15.9 °C 34462.7 hPa WNW 6 km/h 6 km/h 60 % 0 mm
12:47 -11.7 °C -15.9 °C 34462.7 hPa WSW 14 km/h 14 km/h 60 % 0 mm
12:48 -11.7 °C -15.9 °C 34462.7 hPa WNW 15 km/h 15 km/h 60 % 0 mm
12:49 -11.7 °C -15.9 °C 34462.7 hPa WSW 9.3 km/h 9.3 km/h 60 % 0 mm
12:52 -11.7 °C -16 °C 34428.8 hPa West 20.9 km/h 20.9 km/h 59 % 0 mm
12:53 -11.8 °C -16.2 °C 34428.8 hPa West 20.9 km/h 20.9 km/h 58 % 0 mm
12:54 -11.7 °C -16.2 °C 34428.8 hPa West 11.9 km/h 11.9 km/h 58 % 0 mm
12:55 -11.7 °C -16.2 °C 34428.8 hPa WNW 20.9 km/h 20.9 km/h 58 % 0 mm
12:56 -11.7 °C -16.2 °C 34428.8 hPa WSW 20.9 km/h 20.9 km/h 58 % 0 mm
12:57 -11.7 °C -16.3 °C 34428.8 hPa WSW 17.9 km/h 17.9 km/h 57 % 0 mm
12:58 -11.7 °C -16.3 °C 34428.8 hPa WSW 9 km/h 9 km/h 57 % 0 mm
13:00 -11.7 °C -16.2 °C 34428.8 hPa WNW 11.9 km/h 11.9 km/h 57 % 0 mm
13:01 -11.7 °C -16.3 °C 34428.8 hPa NNW 11.9 km/h 11.9 km/h 57 % 0 mm
13:02 -11.7 °C -16.2 °C 34428.8 hPa NW 11.9 km/h 11.9 km/h 57 % 0 mm
13:05 -11.6 °C -16.2 °C 34395 hPa WNW 18.3 km/h 18.3 km/h 57 % 0 mm
13:06 -11.6 °C -16.3 °C 34395 hPa West 17.9 km/h 17.9 km/h 56 % 0 mm
13:07 -11.6 °C -16.3 °C 34395 hPa WSW 15 km/h 15 km/h 56 % 0 mm
13:08 -11.6 °C -16.3 °C 34395 hPa WNW 11.9 km/h 11.9 km/h 56 % 0 mm
13:10 -11.5 °C -16.3 °C 34395 hPa WSW 9 km/h 9 km/h 55 % 0 mm
13:12 -11.4 °C -16.2 °C 34395 hPa SW 12.7 km/h 12.7 km/h 56 % 0 mm
13:13 -11.4 °C -16.2 °C 34395 hPa WNW 15 km/h 15 km/h 56 % 0 mm
13:14 -11.4 °C -16.2 °C 34395 hPa WSW 15 km/h 15 km/h 56 % 0 mm
13:16 -11.4 °C -16.3 °C 34395 hPa North 9 km/h 9 km/h 55 % 0 mm
13:17 -11.4 °C -16.3 °C 34395 hPa WSW 6 km/h 6 km/h 55 % 0 mm
13:19 -11.3 °C -16.2 °C 34395 hPa West 3.7 km/h 3.7 km/h 55 % 0 mm
13:20 -11.3 °C -16.2 °C 34395 hPa SW 9.8 km/h 9.8 km/h 55 % 0 mm
13:21 -11.2 °C -16.1 °C 34395 hPa WSW 8.5 km/h 8.5 km/h 55 % 0 mm
13:22 -11.2 °C -16.1 °C 34395 hPa WSW 9.3 km/h 9.3 km/h 55 % 0 mm
13:24 -11.2 °C -16.2 °C 34395 hPa SW 15 km/h 15 km/h 54 % 0 mm
13:25 -11.2 °C -16.2 °C 34395 hPa WSW 11.9 km/h 11.9 km/h 54 % 0 mm
13:26 -11.2 °C -16.1 °C 34395 hPa SSW 11.9 km/h 11.9 km/h 55 % 0 mm
13:27 -11.2 °C -16.2 °C 34395 hPa WSW 9 km/h 9 km/h 54 % 0 mm
13:28 -11.2 °C -16.2 °C 34395 hPa NW 11.9 km/h 11.9 km/h 54 % 0 mm
13:29 -11.2 °C -16.2 °C 34395 hPa NE 6 km/h 6 km/h 54 % 0 mm
13:30 -11.1 °C -16.2 °C 34395 hPa NW 15 km/h 15 km/h 54 % 0 mm
13:31 -11.1 °C -16.2 °C 34395 hPa WSW 10.3 km/h 10.3 km/h 54 % 0 mm
13:32 -11.1 °C -16.2 °C 34395 hPa WNW 11.9 km/h 11.9 km/h 54 % 0 mm
13:33 -11.1 °C -16.2 °C 34395 hPa West 11.9 km/h 11.9 km/h 54 % 0 mm
13:34 -11.1 °C -16.2 °C 34395 hPa SW 9.8 km/h 9.8 km/h 54 % 0 mm
13:38 -11.1 °C -16.2 °C 34395 hPa WNW 17.9 km/h 17.9 km/h 54 % 0 mm
13:40 -11.2 °C -16.4 °C 34395 hPa WSW 17.9 km/h 17.9 km/h 53 % 0 mm
13:42 -11.2 °C -16.4 °C 34395 hPa West 15.6 km/h 15.6 km/h 53 % 0 mm
13:43 -11.2 °C -16.4 °C 34395 hPa NW 15 km/h 15 km/h 53 % 0 mm
13:44 -11.2 °C -16.4 °C 34395 hPa WNW 9 km/h 9 km/h 53 % 0 mm
13:46 -11.3 °C -16.4 °C 34395 hPa West 16.6 km/h 16.6 km/h 53 % 0 mm
13:48 -11.3 °C -16.6 °C 34395 hPa NNE 11.9 km/h 11.9 km/h 52 % 0 mm
13:49 -11.3 °C -16.6 °C 34395 hPa West 11.9 km/h 11.9 km/h 52 % 0 mm
13:50 -11.3 °C -16.6 °C 34395 hPa WSW 11.9 km/h 11.9 km/h 52 % 0 mm
13:51 -11.3 °C -16.6 °C 34395 hPa SW 9 km/h 9 km/h 52 % 0 mm
13:52 -11.3 °C -16.6 °C 34395 hPa West 9 km/h 9 km/h 52 % 0 mm
13:53 -11.2 °C -16.5 °C 34395 hPa NNW 6.3 km/h 6.3 km/h 52 % 0 mm
13:55 -11.3 °C -16.6 °C 34395 hPa WNW 11.9 km/h 11.9 km/h 52 % 0 mm
13:56 -11.3 °C -16.6 °C 34395 hPa WSW 9 km/h 9 km/h 52 % 0 mm
13:57 -11.2 °C -16.5 °C 34395 hPa WSW 9 km/h 9 km/h 52 % 0 mm
13:59 -11.2 °C -16.5 °C 34395 hPa WSW 11.9 km/h 11.9 km/h 52 % 0 mm
14:00 -11.2 °C -16.5 °C 34395 hPa West 5.1 km/h 15.6 km/h 52 % 0 mm
14:02 -11.1 °C -16.4 °C 34395 hPa West 15 km/h 15 km/h 52 % 0 mm
14:03 -11.1 °C -16.4 °C 34395 hPa West 15 km/h 15 km/h 52 % 0 mm
14:06 -11.1 °C -16.3 °C 34395 hPa West 6.8 km/h 6.8 km/h 52 % 0 mm
14:07 -11.1 °C -16.3 °C 34395 hPa WSW 12.7 km/h 12.7 km/h 52 % 0 mm
14:08 -11.1 °C -16.3 °C 34395 hPa SSW 10.3 km/h 10.3 km/h 52 % 0 mm
14:10 -11.1 °C -16.3 °C 34395 hPa WSW 15 km/h 15 km/h 52 % 0 mm
14:14 -11 °C -16.3 °C 34395 hPa West 11.9 km/h 11.9 km/h 52 % 0 mm
14:15 -11 °C -16.3 °C 34395 hPa NNW 11.9 km/h 11.9 km/h 52 % 0 mm
14:16 -11.1 °C -16.3 °C 34395 hPa WSW 14 km/h 14 km/h 52 % 0 mm
14:17 -11.1 °C -16.3 °C 34395 hPa West 15 km/h 15 km/h 52 % 0 mm
14:18 -11.1 °C -16.3 °C 34395 hPa SW 11.9 km/h 11.9 km/h 52 % 0 mm
14:19 -11 °C -16.5 °C 34395 hPa SSW 11.9 km/h 11.9 km/h 51 % 0 mm
14:21 -11 °C -16.5 °C 34395 hPa NW 11.9 km/h 11.9 km/h 51 % 0 mm
14:24 -11 °C -16.5 °C 34395 hPa NW 9 km/h 9 km/h 51 % 0 mm
14:25 -11 °C -16.5 °C 34395 hPa West 9 km/h 9 km/h 51 % 0 mm
14:27 -11 °C -16.5 °C 34395 hPa South 3.1 km/h 3.1 km/h 51 % 0 mm
14:28 -11 °C -16.5 °C 34395 hPa SSE 9.8 km/h 9.8 km/h 51 % 0 mm
14:30 -11 °C -16.5 °C 34395 hPa WSW 9.3 km/h 9.3 km/h 51 % 0 mm
14:31 -11 °C -16.5 °C 34395 hPa WSW 9 km/h 9 km/h 51 % 0 mm
14:33 -11.1 °C -16.5 °C 34395 hPa West 11.1 km/h 11.1 km/h 51 % 0 mm
14:34 -11.1 °C -16.5 °C 34395 hPa WSW 15 km/h 15 km/h 51 % 0 mm
14:35 -11.1 °C -16.5 °C 34395 hPa WSW 15 km/h 15 km/h 51 % 0 mm
14:37 -11.1 °C -16.5 °C 34395 hPa West 8 km/h 8 km/h 51 % 0 mm
14:39 -11.1 °C -16.6 °C 34395 hPa West 11.9 km/h 11.9 km/h 51 % 0 mm
14:40 -11.2 °C -16.6 °C 34395 hPa WSW 11.9 km/h 11.9 km/h 51 % 0 mm
14:41 -11.2 °C -16.6 °C 34395 hPa WSW 11.9 km/h 11.9 km/h 51 % 0 mm
14:42 -11.2 °C -16.6 °C 34395 hPa WSW 11.9 km/h 11.9 km/h 51 % 0 mm
14:44 -11.2 °C -16.6 °C 34395 hPa NE 9 km/h 9 km/h 51 % 0 mm
14:45 -11.2 °C -16.6 °C 34395 hPa SSW 9 km/h 9 km/h 51 % 0 mm
14:46 -11.2 °C -16.6 °C 34395 hPa NW 9 km/h 9 km/h 51 % 0 mm
14:47 -11.2 °C -16.7 °C 34395 hPa WSW 9 km/h 9 km/h 51 % 0 mm
14:48 -11.2 °C -16.7 °C 34395 hPa WNW 6 km/h 6 km/h 51 % 0 mm
14:49 -11.2 °C -16.7 °C 34395 hPa NW 7.6 km/h 7.6 km/h 51 % 0 mm
14:50 -11.2 °C -16.7 °C 34395 hPa WSW 9 km/h 9 km/h 51 % 0 mm
14:52 -11.2 °C -16.7 °C 34395 hPa West 9 km/h 9 km/h 51 % 0 mm
14:53 -11.2 °C -16.7 °C 34395 hPa WNW 9 km/h 9 km/h 51 % 0 mm
14:54 -11.2 °C -16.7 °C 34395 hPa WSW 14.5 km/h 14.5 km/h 51 % 0 mm
14:55 -11.2 °C -16.7 °C 34395 hPa NNW 10.3 km/h 10.3 km/h 51 % 0 mm
14:56 -11.2 °C -16.7 °C 34395 hPa NNW 11.9 km/h 11.9 km/h 51 % 0 mm
14:58 -11.2 °C -16.6 °C 34395 hPa WNW 8 km/h 8 km/h 51 % 0 mm
14:59 -11.2 °C -16.6 °C 34395 hPa WNW 6 km/h 6.3 km/h 51 % 0 mm
15:00 -11.2 °C -16.6 °C 34395 hPa WNW 9 km/h 9 km/h 51 % 0 mm
15:03 -11.2 °C -16.6 °C 34395 hPa West 15 km/h 15 km/h 51 % 0 mm
15:05 -11.1 °C -16.6 °C 34395 hPa West 5.1 km/h 15.6 km/h 51 % 0 mm
15:06 -11.1 °C -16.5 °C 34395 hPa SW 17.9 km/h 17.9 km/h 51 % 0 mm
15:07 -11.1 °C -16.5 °C 34395 hPa WNW 17.9 km/h 17.9 km/h 51 % 0 mm
15:08 -11.1 °C -16.7 °C 34395 hPa WSW 17.9 km/h 17.9 km/h 50 % 0 mm
15:09 -11.1 °C -16.7 °C 34395 hPa WNW 17.9 km/h 17.9 km/h 50 % 0 mm
15:10 -11.1 °C -16.7 °C 34395 hPa West 15 km/h 15 km/h 50 % 0 mm
15:11 -11.1 °C -16.7 °C 34395 hPa NW 11.9 km/h 11.9 km/h 50 % 0 mm
15:12 -11.2 °C -16.8 °C 34395 hPa West 9 km/h 9 km/h 50 % 0 mm
15:13 -11.1 °C -16.7 °C 34395 hPa WNW 9 km/h 9 km/h 50 % 0 mm
15:14 -11.2 °C -16.8 °C 34395 hPa SSW 9 km/h 9 km/h 50 % 0 mm
15:16 -11.1 °C -16.7 °C 34395 hPa WSW 6 km/h 6 km/h 50 % 0 mm
15:17 -11.1 °C -16.6 °C 34395 hPa NNW 9.3 km/h 9.3 km/h 51 % 0 mm
15:18 -11.1 °C -16.6 °C 34395 hPa WNW 9 km/h 9 km/h 51 % 0 mm
15:20 -11.2 °C -16.8 °C 34395 hPa NW 6.3 km/h 6.3 km/h 50 % 0 mm
15:21 -11.2 °C -16.8 °C 34395 hPa West 9.3 km/h 9.3 km/h 50 % 0 mm
15:23 -11.2 °C -16.8 °C 34395 hPa WSW 9 km/h 9 km/h 50 % 0 mm
15:25 -11.2 °C -16.8 °C 34395 hPa West 15 km/h 15 km/h 50 % 0 mm
15:26 -11.2 °C -16.8 °C 34395 hPa West 15 km/h 15 km/h 50 % 0 mm
15:27 -11.2 °C -16.8 °C 34395 hPa West 9 km/h 9 km/h 50 % 0 mm
15:28 -11.2 °C -16.8 °C 34395 hPa West 11.9 km/h 11.9 km/h 50 % 0 mm
15:29 -11.2 °C -16.8 °C 34395 hPa WSW 9 km/h 9 km/h 50 % 0 mm
15:30 -11.2 °C -16.8 °C 34395 hPa WNW 9.3 km/h 9.3 km/h 50 % 0 mm
15:33 -11.3 °C -16.9 °C 34395 hPa WNW 9 km/h 9 km/h 50 % 0 mm
15:36 -11.3 °C -16.9 °C 34395 hPa West 18.3 km/h 18.3 km/h 50 % 0 mm
15:38 -11.3 °C -16.9 °C 34395 hPa NW 9 km/h 9 km/h 50 % 0 mm
15:39 -11.3 °C -16.9 °C 34395 hPa West 14.5 km/h 14.5 km/h 50 % 0 mm
15:40 -11.3 °C -16.9 °C 34395 hPa WNW 15 km/h 15 km/h 50 % 0 mm
15:42 -11.4 °C -17 °C 34395 hPa SW 11.9 km/h 11.9 km/h 50 % 0 mm
15:43 -11.4 °C -17 °C 34395 hPa West 9 km/h 9.8 km/h 50 % 0 mm
15:45 -11.4 °C -17 °C 34395 hPa West 11.9 km/h 11.9 km/h 50 % 0 mm
15:47 -11.4 °C -17 °C 34395 hPa WNW 6 km/h 6.3 km/h 50 % 0 mm
15:48 -11.4 °C -17 °C 34395 hPa West 6.3 km/h 6.3 km/h 50 % 0 mm
15:49 -11.4 °C -17 °C 34395 hPa WNW 9 km/h 9 km/h 50 % 0 mm
15:50 -11.4 °C -17 °C 34361.1 hPa WNW 9 km/h 9 km/h 50 % 0 mm
15:51 -11.4 °C -17.1 °C 34361.1 hPa NW 11.1 km/h 11.1 km/h 50 % 0 mm
15:52 -11.4 °C -17.1 °C 34361.1 hPa NNE 15 km/h 15 km/h 50 % 0 mm
15:53 -11.4 °C -17.1 °C 34361.1 hPa West 11.9 km/h 11.9 km/h 50 % 0 mm
15:54 -11.4 °C -17.1 °C 34361.1 hPa West 15.3 km/h 15.3 km/h 50 % 0 mm
15:55 -11.4 °C -17.1 °C 34361.1 hPa WNW 15 km/h 15 km/h 50 % 0 mm
15:56 -11.4 °C -17.1 °C 34361.1 hPa SW 15 km/h 15 km/h 50 % 0 mm
15:58 -11.5 °C -17.3 °C 34361.1 hPa WNW 15 km/h 15 km/h 49 % 0 mm
16:00 -11.5 °C -17.3 °C 34361.1 hPa SW 9 km/h 9 km/h 49 % 0 mm
16:01 -11.5 °C -17.3 °C 34361.1 hPa NW 9.8 km/h 9.8 km/h 49 % 0 mm
16:02 -11.5 °C -17.3 °C 34361.1 hPa NNW 16.6 km/h 16.6 km/h 49 % 0 mm
16:03 -11.6 °C -17.3 °C 34361.1 hPa West 17.9 km/h 17.9 km/h 49 % 0 mm
16:04 -11.6 °C -17.3 °C 34361.1 hPa West 15 km/h 15 km/h 49 % 0 mm
16:05 -11.6 °C -17.3 °C 34395 hPa WNW 11.9 km/h 11.9 km/h 49 % 0 mm
16:06 -11.6 °C -17.3 °C 34395 hPa NW 9 km/h 9 km/h 49 % 0 mm
16:07 -11.6 °C -17.3 °C 34395 hPa WSW 9 km/h 9 km/h 49 % 0 mm
16:08 -11.6 °C -17.3 °C 34395 hPa WNW 15 km/h 15 km/h 49 % 0 mm
16:12 -11.5 °C -17.4 °C 34395 hPa West 17.9 km/h 17.9 km/h 48 % 0 mm
16:13 -11.5 °C -17.4 °C 34395 hPa ENE 17.9 km/h 17.9 km/h 48 % 0 mm
16:15 -11.5 °C -17.4 °C 34395 hPa NW 15 km/h 15 km/h 48 % 0 mm
16:16 -11.5 °C -17.4 °C 34395 hPa NW 15 km/h 15 km/h 48 % 0 mm
16:17 -11.5 °C -17.4 °C 34395 hPa WNW 11.9 km/h 11.9 km/h 48 % 0 mm
16:18 -11.5 °C -17.4 °C 34395 hPa West 17.9 km/h 17.9 km/h 48 % 0 mm
16:19 -11.5 °C -17.4 °C 34395 hPa West 17.9 km/h 17.9 km/h 48 % 0 mm
16:20 -11.6 °C -17.4 °C 34395 hPa WNW 15 km/h 15 km/h 48 % 0 mm
16:21 -11.6 °C -17.4 °C 34395 hPa West 15 km/h 15 km/h 48 % 0 mm
16:22 -11.6 °C -17.4 °C 34395 hPa WNW 14 km/h 14 km/h 48 % 0 mm
16:23 -11.6 °C -17.4 °C 34395 hPa WNW 15 km/h 15 km/h 48 % 0 mm
16:25 -11.6 °C -17.5 °C 34395 hPa WSW 9 km/h 9 km/h 48 % 0 mm
16:26 -11.6 °C -17.5 °C 34395 hPa WSW 9 km/h 9 km/h 48 % 0 mm
16:27 -11.7 °C -17.6 °C 34395 hPa West 11.9 km/h 11.9 km/h 48 % 0 mm
16:28 -11.7 °C -17.6 °C 34395 hPa West 17.9 km/h 17.9 km/h 48 % 0 mm
16:29 -11.7 °C -17.6 °C 34395 hPa WNW 17.9 km/h 17.9 km/h 48 % 0 mm
16:30 -11.7 °C -17.6 °C 34395 hPa West 9 km/h 9 km/h 48 % 0 mm
16:31 -11.7 °C -17.6 °C 34395 hPa WSW 15 km/h 15 km/h 48 % 0 mm
16:34 -11.8 °C -17.7 °C 34395 hPa WSW 15 km/h 15 km/h 48 % 0 mm
16:35 -11.8 °C -17.7 °C 34395 hPa WSW 15.3 km/h 15.3 km/h 48 % 0 mm
16:36 -11.8 °C -17.7 °C 34395 hPa West 23.8 km/h 23.8 km/h 48 % 0 mm
16:37 -11.8 °C -17.7 °C 34395 hPa WSW 15 km/h 15 km/h 48 % 0 mm
16:38 -11.8 °C -17.7 °C 34395 hPa WSW 15 km/h 15 km/h 48 % 0 mm
16:39 -11.9 °C -17.7 °C 34395 hPa WSW 9 km/h 9 km/h 48 % 0 mm
16:40 -11.9 °C -17.7 °C 34395 hPa WNW 11.9 km/h 11.9 km/h 48 % 0 mm
16:41 -11.9 °C -17.7 °C 34395 hPa WNW 11.9 km/h 11.9 km/h 48 % 0 mm
16:43 -11.9 °C -17.8 °C 34395 hPa West 11.9 km/h 11.9 km/h 48 % 0 mm
16:44 -11.9 °C -17.8 °C 34395 hPa NW 9 km/h 9 km/h 48 % 0 mm
16:45 -12 °C -17.9 °C 34395 hPa SW 8.5 km/h 8.5 km/h 48 % 0 mm
16:46 -12 °C -17.9 °C 34395 hPa SSW 9 km/h 9 km/h 48 % 0 mm
16:47 -12 °C -17.9 °C 34395 hPa West 9 km/h 9 km/h 48 % 0 mm
16:49 -12.1 °C -17.9 °C 34395 hPa West 11.9 km/h 11.9 km/h 48 % 0 mm
16:50 -12.1 °C -17.9 °C 34395 hPa WNW 11.9 km/h 11.9 km/h 48 % 0 mm
16:51 -12.1 °C -17.9 °C 34395 hPa West 9 km/h 9 km/h 48 % 0 mm
16:54 -12.1 °C -17.9 °C 34395 hPa WNW 10.3 km/h 10.3 km/h 48 % 0 mm
16:55 -12.1 °C -17.9 °C 34395 hPa WSW 11.9 km/h 11.9 km/h 48 % 0 mm
16:56 -12.1 °C -17.9 °C 34395 hPa South 11.9 km/h 11.9 km/h 48 % 0 mm
16:57 -12.2 °C -18 °C 34395 hPa West 11.9 km/h 11.9 km/h 48 % 0 mm
16:58 -12.2 °C -18 °C 34395 hPa WSW 15 km/h 15 km/h 48 % 0 mm
16:59 -12.2 °C -18 °C 34395 hPa WSW 15 km/h 15 km/h 48 % 0 mm
17:00 -12.2 °C -18.1 °C 34395 hPa West 11.9 km/h 11.9 km/h 48 % 0 mm
17:03 -12.2 °C -18.1 °C 34395 hPa WSW 17.9 km/h 17.9 km/h 48 % 0 mm
17:05 -12.3 °C -18.1 °C 34395 hPa West 15 km/h 15 km/h 48 % 0 mm
17:06 -12.3 °C -18.1 °C 34395 hPa West 11.9 km/h 11.9 km/h 48 % 0 mm
17:07 -12.3 °C -18.1 °C 34395 hPa West 15 km/h 15 km/h 48 % 0 mm
17:08 -12.3 °C -18.1 °C 34395 hPa WSW 16.6 km/h 16.6 km/h 48 % 0 mm
17:09 -12.3 °C -18.1 °C 34395 hPa WNW 17.9 km/h 17.9 km/h 48 % 0 mm
17:10 -12.3 °C -18.1 °C 34395 hPa West 12.9 km/h 18.2 km/h 48 % 0 mm
17:11 -12.3 °C -18.2 °C 34395 hPa WSW 11.9 km/h 11.9 km/h 48 % 0 mm
17:12 -12.3 °C -18.2 °C 34395 hPa WSW 11.9 km/h 11.9 km/h 48 % 0 mm
17:13 -12.3 °C -18.2 °C 34395 hPa WSW 17.9 km/h 17.9 km/h 48 % 0 mm
17:15 -12.3 °C -18.2 °C 34395 hPa WSW 15 km/h 15 km/h 48 % 0 mm
17:17 -12.4 °C -18.2 °C 34395 hPa WNW 15 km/h 15 km/h 48 % 0 mm
17:18 -12.4 °C -18.2 °C 34395 hPa WSW 15 km/h 15 km/h 48 % 0 mm
17:20 -12.4 °C -18.2 °C 34395 hPa WSW 15 km/h 15 km/h 48 % 0 mm
17:23 -12.4 °C -18.3 °C 34395 hPa WSW 11.9 km/h 11.9 km/h 48 % 0 mm
17:25 -12.4 °C -18.3 °C 34395 hPa WNW 11.9 km/h 11.9 km/h 48 % 0 mm
17:28 -12.5 °C -18.3 °C 34395 hPa West 17.9 km/h 17.9 km/h 48 % 0 mm
17:30 -12.6 °C -18.4 °C 34395 hPa WSW 15 km/h 15 km/h 48 % 0 mm
17:32 -12.6 °C -18.4 °C 34395 hPa SW 20.9 km/h 20.9 km/h 48 % 0 mm
17:34 -12.6 °C -18.4 °C 34395 hPa WSW 20.9 km/h 20.9 km/h 48 % 0 mm
17:35 -12.6 °C -18.4 °C 34395 hPa WSW 15 km/h 15 km/h 48 % 0 mm
17:36 -12.6 °C -18.4 °C 34395 hPa WNW 16.6 km/h 16.6 km/h 48 % 0 mm
17:37 -12.6 °C -18.4 °C 34395 hPa West 20.9 km/h 20.9 km/h 48 % 0 mm
17:39 -12.7 °C -18.5 °C 34395 hPa WNW 15 km/h 15 km/h 48 % 0 mm
17:42 -12.7 °C -18.5 °C 34395 hPa WSW 15 km/h 15 km/h 48 % 0 mm
17:43 -12.7 °C -18.5 °C 34395 hPa West 11.9 km/h 11.9 km/h 48 % 0 mm
17:46 -12.7 °C -18.5 °C 34395 hPa West 9.8 km/h 9.8 km/h 48 % 0 mm
17:47 -12.7 °C -18.5 °C 34395 hPa WSW 9.8 km/h 9.8 km/h 48 % 0 mm
17:49 -12.8 °C -18.6 °C 34395 hPa WSW 11.9 km/h 11.9 km/h 48 % 0 mm
17:51 -12.8 °C -18.6 °C 34395 hPa West 11.9 km/h 11.9 km/h 48 % 0 mm
17:52 -12.8 °C -18.6 °C 34395 hPa West 15 km/h 15 km/h 48 % 0 mm
17:53 -12.8 °C -18.6 °C 34395 hPa SW 15 km/h 15 km/h 48 % 0 mm
17:54 -12.8 °C -18.7 °C 34395 hPa WNW 11.9 km/h 11.9 km/h 48 % 0 mm
17:55 -12.8 °C -18.6 °C 34395 hPa West 7.7 km/h 15.6 km/h 48 % 0 mm
17:56 -12.8 °C -18.7 °C 34395 hPa WSW 15 km/h 15 km/h 48 % 0 mm
17:58 -12.8 °C -18.7 °C 34395 hPa WSW 11.9 km/h 11.9 km/h 48 % 0 mm
17:59 -12.8 °C -18.7 °C 34395 hPa WSW 15 km/h 15 km/h 48 % 0 mm
18:00 -12.8 °C -18.7 °C 34395 hPa WSW 7.7 km/h 15.6 km/h 48 % 0 mm
18:05 -12.9 °C -18.7 °C 34361.1 hPa West 9.3 km/h 9.3 km/h 48 % 0 mm
18:06 -12.9 °C -18.7 °C 34361.1 hPa West 17.9 km/h 17.9 km/h 48 % 0 mm
18:07 -12.9 °C -18.7 °C 34361.1 hPa West 17.9 km/h 17.9 km/h 48 % 0 mm
18:08 -12.9 °C -18.7 °C 34361.1 hPa WSW 20.9 km/h 20.9 km/h 48 % 0 mm
18:09 -12.9 °C -18.7 °C 34361.1 hPa West 20.9 km/h 20.9 km/h 48 % 0 mm
18:11 -12.9 °C -18.6 °C 34361.1 hPa WSW 9 km/h 10.3 km/h 49 % 0 mm
18:13 -13 °C -18.6 °C 34361.1 hPa West 15 km/h 15 km/h 49 % 0 mm
18:14 -13 °C -18.8 °C 34361.1 hPa West 15 km/h 15 km/h 48 % 0 mm
18:15 -13 °C -18.6 °C 34361.1 hPa WSW 15 km/h 15 km/h 49 % 0 mm
18:16 -13 °C -18.6 °C 34361.1 hPa WSW 15 km/h 15 km/h 49 % 0 mm
18:20 -13 °C -18.6 °C 34395 hPa WSW 15 km/h 15 km/h 49 % 0 mm
18:22 -13 °C -18.6 °C 34395 hPa WSW 15 km/h 15 km/h 49 % 0 mm
18:27 -13 °C -18.6 °C 34395 hPa WSW 17.9 km/h 17.9 km/h 49 % 0 mm
18:49 -13.1 °C -18.7 °C 34361.1 hPa WSW 6.3 km/h 6.3 km/h 49 % 0 mm
18:50 -13.1 °C -18.7 °C 34361.1 hPa WSW 5.1 km/h 15.6 km/h 49 % 0 mm
18:52 -13.1 °C -18.7 °C 34395 hPa SSW 26.9 km/h 26.9 km/h 49 % 0 mm
18:53 -13.1 °C -18.7 °C 34395 hPa WSW 9 km/h 9 km/h 49 % 0 mm
18:54 -13.1 °C -18.7 °C 34395 hPa WSW 6 km/h 6 km/h 49 % 0 mm
18:59 -13.2 °C -18.8 °C 34395 hPa WSW 9 km/h 9 km/h 49 % 0 mm
19:07 -13.3 °C -18.8 °C 34361.1 hPa WSW 6.3 km/h 6.3 km/h 50 % 0 mm
19:09 -13.3 °C -18.8 °C 34361.1 hPa SW 9 km/h 9 km/h 50 % 0 mm
19:13 -13.3 °C -18.8 °C 34361.1 hPa WSW 6.3 km/h 6.3 km/h 50 % 0 mm
19:19 -13.4 °C -18.8 °C 34361.1 hPa WSW 6 km/h 6 km/h 50 % 0 mm
19:24 -13.4 °C -18.9 °C 34395 hPa WSW 9 km/h 9 km/h 50 % 0 mm
19:25 -13.4 °C -18.9 °C 34395 hPa West 9 km/h 9 km/h 50 % 0 mm
19:28 -13.4 °C -18.9 °C 34395 hPa West 9 km/h 9 km/h 50 % 0 mm
19:32 -13.4 °C -18.9 °C 34395 hPa West 7.6 km/h 7.6 km/h 50 % 0 mm
19:34 -13.4 °C -18.9 °C 34395 hPa West 9 km/h 9 km/h 50 % 0 mm
19:35 -13.5 °C -18.9 °C 34395 hPa West 7.6 km/h 7.6 km/h 50 % 0 mm
19:36 -13.5 °C -18.9 °C 34395 hPa WSW 9 km/h 9 km/h 50 % 0 mm
19:37 -13.5 °C -18.9 °C 34395 hPa WSW 9 km/h 9 km/h 50 % 0 mm
19:40 -13.5 °C -18.9 °C 34395 hPa WSW 9 km/h 9 km/h 50 % 0 mm
19:43 -13.5 °C -18.9 °C 34395 hPa WSW 6.3 km/h 6.3 km/h 50 % 0 mm
19:45 -13.6 °C -19 °C 34395 hPa WSW 9 km/h 9 km/h 50 % 0 mm
19:46 -13.6 °C -19 °C 34395 hPa SW 6.3 km/h 6.3 km/h 50 % 0 mm
19:52 -13.7 °C -19.1 °C 34395 hPa WSW 6.3 km/h 6.3 km/h 50 % 0 mm
19:58 -13.8 °C -19.1 °C 34395 hPa West 3.1 km/h 3.1 km/h 51 % 0 mm
20:02 -13.8 °C -19.1 °C 34395 hPa WSW 6 km/h 6 km/h 51 % 0 mm
20:07 -13.8 °C -19.1 °C 34395 hPa SSW 9.3 km/h 9.3 km/h 51 % 0 mm
20:12 -13.8 °C -19.1 °C 34395 hPa WNW 9 km/h 9 km/h 51 % 0 mm
20:17 -13.7 °C -19 °C 34395 hPa West 6.8 km/h 6.8 km/h 51 % 0 mm
20:22 -13.7 °C -18.9 °C 34428.8 hPa WSW 11.9 km/h 11.9 km/h 51 % 0 mm
Meteo Sesrovires
Elogis d' Weather Underground - 4.5 mb

Guio original per  Jim McMurry - jmcmurry@mwt.net Adaptat per a la plantilla per  Wim van der Kuil - Leuven-Template.eu

Trobareu la nostra informacio del temps tambe a:

Weather Underground

AWEKAS